Pagrindinis puslapis
METAR-TAF:

METAR-TAF

Oro uostai :

Balikpapanas, Indonezija

platuma: 01-16-06S, ilguma: 116-53-40E, Aukštis: 4 m

METAR: trūkstamas

Laikas: 03:58 (20:58 UTC)

Prognozė

Ataskaita buvo paskelbta 3 valandos ir 58 minutes, ne 17:00 UTC
Prognozė galioja nuo 20 metu 18 UTC su 21 metu 24 UTC
Vėjas 4 kt iš Pietų/Pietvakarių
Matomumas: 9000 m
Išsisklaidę debesys ne aukštis 2000 ft
Laikinai
nuo 20 metu 21 UTC su 20 metu 24 UTC
Matomumas: 4000 m
dūmai
Tapsmas
nuo 21 metu 00 UTC su 21 metu 02 UTC
Matomumas 10 km arba daugiau

TAF: WALL 201700Z 2018/2124 21004KT 9000 SCT020 TEMPO 2021/2024 4000 FU BECMG 2100/2102 9999

Orai ataskaitas ir orų prognozės (METAR, TAF).

turimą stotys yra geltonos ir raudonos taškus žemėlapyje.

Perkelti pele per norėdami pamatyti stoties vardą.

Tada spustelėkite, norėdami matyti oro stebėjimo ir prognozės.

Norėdami pakeisti žemėlapį: spustelėkite ant žalios mygtukų su juodo kryžiaus žemyn,; žalią mygtuką su brūkšneliu, jei norite nutolinti; arba žalių rodyklių gretimoms žemėlapius.


METAR-TAF: